createdAt,value
2019-05-01T00:03:09.948Z,77.63
2019-05-01T00:05:58.820Z,77.93
2019-05-01T00:08:46.476Z,78.27
2019-05-01T00:11:34.105Z,78.25
2019-05-01T00:14:21.882Z,78.58
2019-05-01T00:17:09.652Z,79.12
2019-05-01T00:19:57.215Z,79.18
2019-05-01T00:22:45.420Z,79.33
2019-05-01T00:25:33.450Z,79.80
2019-05-01T00:28:21.114Z,79.70
2019-05-01T00:31:08.642Z,80.11
2019-05-01T00:33:56.262Z,80.03
2019-05-01T00:36:44.110Z,80.00
2019-05-01T00:39:31.688Z,80.31
2019-05-01T00:42:19.796Z,80.50
2019-05-01T00:45:07.612Z,80.81
2019-05-01T00:47:55.946Z,81.19
2019-05-01T00:50:43.385Z,81.15
2019-05-01T00:53:31.040Z,81.60
2019-05-01T00:56:37.984Z,81.52
2019-05-01T00:59:35.018Z,81.83
2019-05-01T01:02:47.448Z,81.79
2019-05-01T01:05:35.152Z,82.03
2019-05-01T01:08:22.664Z,82.24
2019-05-01T01:11:10.307Z,82.29
2019-05-01T01:13:58.534Z,81.90
2019-05-01T01:16:46.031Z,82.17
2019-05-01T01:19:33.853Z,82.07
2019-05-01T01:22:22.152Z,82.37
2019-05-01T01:25:10.042Z,82.48
2019-05-01T01:27:57.611Z,82.61
2019-05-01T01:30:55.685Z,82.82
2019-05-01T01:33:33.884Z,82.64
2019-05-01T01:36:21.840Z,82.82
2019-05-01T01:39:09.622Z,82.80
2019-05-01T01:41:57.086Z,83.21
2019-05-01T01:44:58.499Z,83.33
2019-05-01T01:48:03.907Z,83.70
2019-05-01T01:50:51.738Z,83.68
2019-05-01T01:53:39.897Z,83.41
2019-05-01T01:56:27.874Z,83.46
2019-05-01T01:59:15.549Z,83.03
2019-05-01T02:02:07.584Z,83.39
2019-05-01T02:05:10.331Z,83.18
2019-05-01T02:07:58.165Z,83.47
2019-05-01T02:10:45.917Z,82.80
2019-05-01T02:13:33.535Z,82.88
2019-05-01T02:16:20.934Z,83.56
2019-05-01T02:19:11.595Z,83.70
2019-05-01T02:21:59.542Z,83.70
2019-05-01T02:24:47.753Z,83.42
2019-05-01T02:27:40.423Z,84.21
2019-05-01T02:30:28.352Z,84.22
2019-05-01T02:33:16.232Z,84.34
2019-05-01T02:36:04.417Z,84.02
2019-05-01T02:38:52.464Z,84.23
2019-05-01T02:41:41.899Z,84.42
2019-05-01T02:44:30.415Z,84.25
2019-05-01T02:47:21.422Z,83.85
2019-05-01T02:50:10.660Z,84.11
2019-05-01T02:52:58.420Z,84.11
2019-05-01T02:55:53.909Z,84.15
2019-05-01T02:58:41.454Z,83.76
2019-05-01T03:01:45.561Z,83.53
2019-05-01T03:04:16.977Z,83.34
2019-05-01T03:07:05.159Z,83.60
2019-05-01T03:09:52.864Z,83.72
2019-05-01T03:12:40.601Z,83.67
2019-05-01T03:15:28.341Z,83.75
2019-05-01T03:18:26.868Z,84.04
2019-05-01T03:21:22.332Z,84.04
2019-05-01T03:24:17.083Z,83.96
2019-05-01T03:27:04.869Z,84.63
2019-05-01T03:29:52.967Z,84.40
2019-05-01T03:32:41.151Z,84.62
2019-05-01T03:35:29.432Z,84.98
2019-05-01T03:38:17.259Z,84.98
2019-05-01T03:41:05.215Z,84.38
2019-05-01T03:43:52.834Z,84.38
2019-05-01T03:46:40.947Z,84.41
2019-05-01T03:49:28.601Z,84.41
2019-05-01T03:52:16.875Z,85.03
2019-05-01T03:55:05.064Z,84.92
2019-05-01T03:57:53.154Z,84.74
2019-05-01T04:01:00.091Z,84.19
2019-05-01T04:03:50.841Z,84.30
2019-05-01T04:06:41.715Z,84.06
2019-05-01T04:09:29.579Z,83.24
2019-05-01T04:12:17.163Z,83.24
2019-05-01T04:15:05.041Z,83.36
2019-05-01T04:17:53.432Z,82.97
2019-05-01T04:20:40.899Z,82.97
2019-05-01T04:23:31.595Z,83.01
2019-05-01T04:26:18.956Z,83.32
2019-05-01T04:29:28.877Z,82.20
2019-05-01T04:32:22.199Z,82.20
2019-05-01T04:35:29.407Z,81.50
2019-05-01T04:38:16.887Z,81.50
2019-05-01T04:41:05.005Z,81.72
2019-05-01T04:43:52.709Z,81.72
2019-05-01T04:46:40.691Z,81.82
2019-05-01T04:49:28.406Z,82.01
2019-05-01T04:52:16.194Z,81.75
2019-05-01T04:55:04.321Z,81.78
2019-05-01T04:57:51.868Z,81.02
2019-05-01T05:00:39.468Z,80.85
2019-05-01T05:03:27.722Z,80.67
2019-05-01T05:06:15.352Z,80.67
2019-05-01T05:09:03.052Z,80.65
2019-05-01T05:11:54.392Z,80.65
2019-05-01T05:14:42.344Z,81.06
2019-05-01T05:17:30.515Z,80.96
2019-05-01T05:20:18.148Z,81.06
2019-05-01T05:23:06.033Z,80.92
2019-05-01T05:25:54.193Z,80.51
2019-05-01T05:28:41.803Z,81.01
2019-05-01T05:31:30.014Z,81.05
2019-05-01T05:34:19.524Z,81.05
2019-05-01T05:37:14.540Z,80.44
2019-05-01T05:40:02.962Z,80.44
2019-05-01T05:42:50.376Z,79.71
2019-05-01T05:45:38.092Z,79.71
2019-05-01T05:48:25.876Z,79.34
2019-05-01T05:51:21.540Z,79.19
2019-05-01T05:54:34.714Z,78.96
2019-05-01T05:57:29.710Z,78.96
2019-05-01T06:00:26.193Z,79.11
2019-05-01T06:03:35.000Z,78.70
2019-05-01T06:06:28.706Z,78.76
2019-05-01T06:09:17.350Z,78.55
2019-05-01T06:12:13.257Z,78.55
2019-05-01T06:15:21.286Z,78.61
2019-05-01T06:18:22.327Z,77.09
2019-05-01T06:21:36.638Z,77.09
2019-05-01T06:24:35.634Z,76.70
2019-05-01T06:27:19.553Z,76.70
2019-05-01T06:30:11.010Z,76.44
2019-05-01T06:32:56.419Z,76.46
2019-05-01T06:35:44.759Z,77.22
2019-05-01T06:38:36.313Z,76.25
2019-05-01T06:41:19.658Z,75.83
2019-05-01T06:44:20.271Z,75.58
2019-05-01T06:47:29.016Z,75.58
2019-05-01T06:50:21.191Z,75.28
2019-05-01T06:53:09.711Z,75.04
2019-05-01T06:55:57.804Z,75.04
2019-05-01T06:58:45.513Z,74.63
2019-05-01T07:01:33.042Z,73.54
2019-05-01T07:04:20.969Z,73.13
2019-05-01T07:07:23.971Z,73.13
2019-05-01T07:09:56.857Z,71.85
2019-05-01T07:12:44.536Z,71.85
2019-05-01T07:15:32.787Z,71.85
2019-05-01T07:18:23.714Z,71.04
2019-05-01T07:21:08.339Z,70.06
2019-05-01T07:23:55.789Z,70.30
2019-05-01T07:26:43.933Z,69.88
2019-05-01T07:29:32.902Z,70.37
2019-05-01T07:32:20.009Z,70.37
2019-05-01T07:35:07.504Z,70.17
2019-05-01T07:37:57.525Z,70.49
2019-05-01T07:40:43.606Z,70.28
2019-05-01T07:44:00.988Z,70.88
2019-05-01T07:47:03.601Z,70.24
2019-05-01T07:49:54.628Z,69.17
2019-05-01T07:52:41.320Z,69.17
2019-05-01T07:55:38.894Z,68.98
2019-05-01T07:58:26.727Z,67.92
2019-05-01T08:01:27.375Z,67.92
2019-05-01T08:04:19.722Z,68.00
2019-05-01T08:07:04.170Z,68.25
2019-05-01T08:09:51.947Z,67.71
2019-05-01T08:12:40.195Z,67.19
2019-05-01T08:15:32.325Z,66.25
2019-05-01T08:18:24.017Z,65.92
2019-05-01T08:21:28.913Z,65.11
2019-05-01T08:24:17.994Z,65.11
2019-05-01T08:27:04.907Z,64.86
2019-05-01T08:30:00.476Z,65.29
2019-05-01T08:33:16.388Z,63.95
2019-05-01T08:36:06.729Z,64.54
2019-05-01T08:38:51.943Z,64.54
2019-05-01T08:41:39.742Z,63.83
2019-05-01T08:44:29.596Z,61.60
2019-05-01T08:47:25.944Z,61.98
2019-05-01T08:50:13.701Z,61.22
2019-05-01T08:53:01.675Z,60.44
2019-05-01T08:55:49.425Z,60.13
2019-05-01T08:58:37.155Z,61.13
2019-05-01T09:01:25.061Z,58.92
2019-05-01T09:04:13.489Z,58.89
2019-05-01T09:07:01.003Z,58.73
2019-05-01T09:09:48.770Z,58.31
2019-05-01T09:12:36.512Z,57.65
2019-05-01T09:15:24.157Z,56.56
2019-05-01T09:18:11.820Z,55.21
2019-05-01T09:20:59.517Z,54.96
2019-05-01T09:23:51.373Z,55.88
2019-05-01T09:26:45.457Z,54.56
2019-05-01T09:29:37.966Z,52.96
2019-05-01T09:32:25.786Z,51.68
2019-05-01T09:35:15.971Z,53.01
2019-05-01T09:38:01.671Z,52.63
2019-05-01T09:40:49.234Z,52.24
2019-05-01T09:43:37.155Z,50.64
2019-05-01T09:46:25.520Z,50.78
2019-05-01T09:49:14.336Z,50.46
2019-05-01T09:52:23.509Z,50.09
2019-05-01T09:55:34.153Z,49.22
2019-05-01T09:58:21.729Z,48.74
2019-05-01T10:01:09.482Z,50.22
2019-05-01T10:03:57.292Z,48.15
2019-05-01T10:06:47.736Z,49.28
2019-05-01T10:09:33.775Z,47.70
2019-05-01T10:12:21.967Z,48.96
2019-05-01T10:15:09.627Z,47.13
2019-05-01T10:17:57.883Z,48.39
2019-05-01T10:20:45.419Z,48.40
2019-05-01T10:23:33.703Z,47.26
2019-05-01T10:26:23.958Z,45.47
2019-05-01T10:29:36.500Z,45.83
2019-05-01T10:32:25.378Z,47.82
2019-05-01T10:35:42.794Z,46.69
2019-05-01T10:38:25.925Z,48.96
2019-05-01T10:41:13.742Z,47.68
2019-05-01T10:44:01.584Z,48.20
2019-05-01T10:46:50.002Z,47.78
2019-05-01T10:49:37.498Z,48.89
2019-05-01T10:52:25.153Z,47.08
2019-05-01T10:55:12.677Z,47.00
2019-05-01T10:58:03.207Z,46.24
2019-05-01T11:00:50.152Z,46.36
2019-05-01T11:03:38.017Z,46.77
2019-05-01T11:06:26.209Z,45.96
2019-05-01T11:09:13.926Z,46.29
2019-05-01T11:12:02.047Z,45.00
2019-05-01T11:14:49.767Z,44.79
2019-05-01T11:17:37.711Z,44.07
2019-05-01T11:20:25.498Z,46.42
2019-05-01T11:23:12.996Z,46.49
2019-05-01T11:26:00.555Z,44.74
2019-05-01T11:28:48.351Z,45.79
2019-05-01T11:31:42.903Z,45.93
2019-05-01T11:35:02.565Z,45.47
2019-05-01T11:37:57.486Z,46.29
2019-05-01T11:40:49.183Z,45.52
2019-05-01T11:43:45.899Z,44.62
2019-05-01T11:46:36.685Z,43.60
2019-05-01T11:49:24.776Z,43.66
2019-05-01T11:52:12.545Z,43.68
2019-05-01T11:55:00.302Z,42.60
2019-05-01T11:57:48.762Z,41.95
2019-05-01T12:00:36.503Z,41.78
2019-05-01T12:03:24.206Z,40.75
2019-05-01T12:06:22.338Z,40.57
2019-05-01T12:09:02.283Z,39.90
2019-05-01T12:11:50.196Z,40.46
2019-05-01T12:14:38.737Z,41.09
2019-05-01T12:17:30.252Z,41.14
2019-05-01T12:20:19.058Z,41.03
2019-05-01T12:23:06.597Z,41.69
2019-05-01T12:25:54.289Z,41.46
2019-05-01T12:28:41.924Z,39.16
2019-05-01T12:31:31.257Z,40.56
2019-05-01T12:34:18.107Z,40.44
2019-05-01T12:37:26.393Z,40.82
2019-05-01T12:40:15.832Z,40.81
2019-05-01T12:43:03.726Z,39.97
2019-05-01T12:45:51.667Z,40.80
2019-05-01T12:48:40.129Z,40.59
2019-05-01T12:51:27.939Z,38.74
2019-05-01T12:54:26.009Z,40.57
2019-05-01T12:57:14.201Z,40.90
2019-05-01T13:00:08.495Z,40.75
2019-05-01T13:02:49.451Z,39.36
2019-05-01T13:05:37.167Z,39.68
2019-05-01T13:08:24.705Z,39.30
2019-05-01T13:11:13.144Z,38.54
2019-05-01T13:14:00.632Z,37.54
2019-05-01T13:16:48.244Z,38.12
2019-05-01T13:19:36.053Z,39.00
2019-05-01T13:22:23.685Z,39.39
2019-05-01T13:25:11.279Z,39.64
2019-05-01T13:28:13.701Z,39.40
2019-05-01T13:31:11.516Z,39.05
2019-05-01T13:33:59.233Z,39.51
2019-05-01T13:36:46.823Z,38.70
2019-05-01T13:39:34.687Z,38.19
2019-05-01T13:42:22.575Z,38.12
2019-05-01T13:45:10.236Z,39.17
2019-05-01T13:47:57.750Z,40.10
2019-05-01T13:50:45.317Z,39.83
2019-05-01T13:53:33.067Z,40.15
2019-05-01T13:56:21.270Z,39.80
2019-05-01T13:59:10.655Z,39.90
2019-05-01T14:01:58.472Z,39.47
2019-05-01T14:04:46.278Z,41.25
2019-05-01T14:07:34.217Z,40.25
2019-05-01T14:10:22.066Z,40.80
2019-05-01T14:13:09.791Z,40.09
2019-05-01T14:15:57.443Z,40.74
2019-05-01T14:18:44.859Z,41.18
2019-05-01T14:21:37.651Z,39.95
2019-05-01T14:24:32.986Z,39.92
2019-05-01T14:27:21.246Z,39.29
2019-05-01T14:30:09.411Z,39.46
2019-05-01T14:32:57.686Z,39.87
2019-05-01T14:35:45.503Z,38.95
2019-05-01T14:38:33.694Z,38.28
2019-05-01T14:41:21.275Z,38.14
2019-05-01T14:44:08.899Z,37.50
2019-05-01T14:46:57.217Z,37.83
2019-05-01T14:49:44.885Z,37.95
2019-05-01T14:52:32.757Z,37.32
2019-05-01T14:55:20.353Z,36.53
2019-05-01T14:58:08.073Z,36.61
2019-05-01T15:00:56.415Z,38.21
2019-05-01T15:03:44.677Z,39.12
2019-05-01T15:06:32.398Z,39.06
2019-05-01T15:09:20.175Z,39.86
2019-05-01T15:12:07.631Z,39.12
2019-05-01T15:15:17.243Z,39.66
2019-05-01T15:18:10.725Z,39.36
2019-05-01T15:20:59.065Z,39.76
2019-05-01T15:23:53.629Z,38.95
2019-05-01T15:26:35.436Z,38.73
2019-05-01T15:29:23.255Z,39.50
2019-05-01T15:32:11.070Z,38.88
2019-05-01T15:34:58.789Z,39.48
2019-05-01T15:37:56.484Z,40.80
2019-05-01T15:40:53.371Z,41.86
2019-05-01T15:44:13.125Z,41.09
2019-05-01T15:47:00.637Z,40.61
2019-05-01T15:49:48.059Z,41.76
2019-05-01T15:52:36.421Z,41.76
2019-05-01T15:55:24.084Z,40.92
2019-05-01T15:58:12.333Z,41.05
2019-05-01T16:00:59.915Z,40.61
2019-05-01T16:03:47.616Z,41.31
2019-05-01T16:06:35.789Z,40.60
2019-05-01T16:09:24.075Z,40.73
2019-05-01T16:12:36.436Z,40.42
2019-05-01T16:15:29.377Z,40.20
2019-05-01T16:18:16.845Z,39.19
2019-05-01T16:21:04.591Z,38.84
2019-05-01T16:23:52.342Z,39.06
2019-05-01T16:26:40.457Z,38.42
2019-05-01T16:29:27.857Z,38.42
2019-05-01T16:32:15.564Z,38.43
2019-05-01T16:35:02.869Z,38.97
2019-05-01T16:37:50.673Z,39.10
2019-05-01T16:40:59.325Z,38.42
2019-05-01T16:43:46.613Z,37.90
2019-05-01T16:46:34.628Z,37.77
2019-05-01T16:49:22.602Z,38.34
2019-05-01T16:52:10.279Z,38.20
2019-05-01T16:54:59.492Z,39.01
2019-05-01T16:57:45.401Z,39.69
2019-05-01T17:01:04.132Z,40.13
2019-05-01T17:04:02.201Z,40.13
2019-05-01T17:07:01.765Z,40.39
2019-05-01T17:10:08.478Z,41.47
2019-05-01T17:12:55.967Z,41.63
2019-05-01T17:15:44.559Z,42.74
2019-05-01T17:18:32.118Z,45.48
2019-05-01T17:21:20.583Z,45.97
2019-05-01T17:24:08.727Z,48.04
2019-05-01T17:26:56.908Z,49.23
2019-05-01T17:29:45.319Z,49.66
2019-05-01T17:32:33.059Z,50.55
2019-05-01T17:35:20.584Z,50.78
2019-05-01T17:38:08.245Z,51.65
2019-05-01T17:40:56.149Z,51.88
2019-05-01T17:43:44.768Z,52.07
2019-05-01T17:46:31.613Z,52.23
2019-05-01T17:49:19.130Z,52.80
2019-05-01T17:52:07.255Z,53.00
2019-05-01T17:54:55.021Z,53.31
2019-05-01T17:57:42.545Z,52.97
2019-05-01T18:00:47.694Z,52.50
2019-05-01T18:03:57.809Z,53.75
2019-05-01T18:06:48.190Z,54.89
2019-05-01T18:09:36.150Z,54.86
2019-05-01T18:12:28.416Z,55.51
2019-05-01T18:15:12.007Z,56.15
2019-05-01T18:17:59.919Z,56.56
2019-05-01T18:20:47.522Z,57.00
2019-05-01T18:23:53.435Z,57.25
2019-05-01T18:26:59.307Z,57.63
2019-05-01T18:29:48.876Z,58.04
2019-05-01T18:32:46.529Z,58.49
2019-05-01T18:35:29.739Z,58.84
2019-05-01T18:38:31.318Z,59.23
2019-05-01T18:41:23.210Z,60.10
2019-05-01T18:44:11.431Z,60.61
2019-05-01T18:46:58.273Z,60.93
2019-05-01T18:49:45.886Z,61.28
2019-05-01T18:52:33.583Z,61.71
2019-05-01T18:55:25.898Z,62.06
2019-05-01T18:58:09.535Z,62.38
2019-05-01T19:00:57.639Z,62.65
2019-05-01T19:03:45.247Z,63.20
2019-05-01T19:06:40.952Z,63.65
2019-05-01T19:09:29.734Z,63.72
2019-05-01T19:12:09.529Z,64.17
2019-05-01T19:15:00.300Z,64.30
2019-05-01T19:17:45.680Z,64.50
2019-05-01T19:20:34.324Z,64.62
2019-05-01T19:23:22.092Z,64.61
2019-05-01T19:26:09.621Z,64.97
2019-05-01T19:28:57.422Z,65.27
2019-05-01T19:31:45.697Z,65.81
2019-05-01T19:34:33.346Z,66.39
2019-05-01T19:37:22.063Z,66.67
2019-05-01T19:40:10.699Z,66.82
2019-05-01T19:43:00.136Z,67.44
2019-05-01T19:45:46.292Z,67.52
2019-05-01T19:48:34.039Z,67.84
2019-05-01T19:51:24.014Z,68.06
2019-05-01T19:54:09.490Z,67.98
2019-05-01T19:56:56.847Z,67.81
2019-05-01T19:59:44.822Z,68.46
2019-05-01T20:02:32.471Z,68.61
2019-05-01T20:05:21.969Z,68.52
2019-05-01T20:08:08.143Z,68.82
2019-05-01T20:10:56.364Z,69.43
2019-05-01T20:13:44.453Z,69.85
2019-05-01T20:16:32.005Z,70.22
2019-05-01T20:19:19.698Z,70.58
2019-05-01T20:22:07.909Z,70.80
2019-05-01T20:24:56.081Z,71.19
2019-05-01T20:27:47.734Z,71.28
2019-05-01T20:30:32.174Z,71.39
2019-05-01T20:33:19.783Z,71.33
2019-05-01T20:36:07.644Z,71.94
2019-05-01T20:38:55.159Z,72.10
2019-05-01T20:41:43.271Z,72.10
2019-05-01T20:44:31.465Z,72.67
2019-05-01T20:47:34.151Z,72.71
2019-05-01T20:50:06.805Z,73.07
2019-05-01T20:52:54.435Z,72.51
2019-05-01T20:55:42.512Z,73.34
2019-05-01T20:58:30.712Z,73.18
2019-05-01T21:01:18.383Z,73.02
2019-05-01T21:04:16.262Z,72.67
2019-05-01T21:07:19.830Z,72.96
2019-05-01T21:10:07.267Z,72.86
2019-05-01T21:12:54.870Z,72.86
2019-05-01T21:15:42.832Z,72.91
2019-05-01T21:18:30.864Z,73.51
2019-05-01T21:21:18.475Z,74.08
2019-05-01T21:24:05.881Z,74.02
2019-05-01T21:26:54.234Z,74.16
2019-05-01T21:29:42.017Z,74.59
2019-05-01T21:32:29.818Z,74.58
2019-05-01T21:35:17.620Z,75.35
2019-05-01T21:38:05.640Z,75.35
2019-05-01T21:40:53.887Z,75.73
2019-05-01T21:43:42.517Z,75.90
2019-05-01T21:46:28.789Z,75.90
2019-05-01T21:49:17.139Z,75.92
2019-05-01T21:52:07.232Z,75.70
2019-05-01T21:54:55.417Z,75.78
2019-05-01T21:57:40.910Z,76.05
2019-05-01T22:00:32.126Z,76.02
2019-05-01T22:03:21.577Z,76.10
2019-05-01T22:06:11.344Z,76.52
2019-05-01T22:08:55.042Z,77.03
2019-05-01T22:11:44.355Z,77.03
2019-05-01T22:14:42.139Z,77.17
2019-05-01T22:18:00.634Z,77.17
2019-05-01T22:20:52.233Z,77.34
2019-05-01T22:24:17.797Z,77.08
2019-05-01T22:27:08.272Z,77.64
2019-05-01T22:30:05.778Z,76.86
2019-05-01T22:32:51.419Z,76.86
2019-05-01T22:35:42.916Z,77.13
2019-05-01T22:38:31.316Z,76.92
2019-05-01T22:41:18.918Z,76.92
2019-05-01T22:44:06.537Z,77.21
2019-05-01T22:46:54.426Z,76.77
2019-05-01T22:49:42.922Z,76.80
2019-05-01T22:52:30.676Z,76.95
2019-05-01T22:55:20.452Z,76.98
2019-05-01T22:58:05.896Z,76.98
2019-05-01T23:00:55.631Z,77.02
2019-05-01T23:04:05.640Z,76.97
2019-05-01T23:06:53.284Z,77.03
2019-05-01T23:09:40.755Z,77.37
2019-05-01T23:12:29.642Z,77.95
2019-05-01T23:15:20.590Z,77.95
2019-05-01T23:18:10.657Z,77.84
2019-05-01T23:20:56.567Z,78.26
2019-05-01T23:23:44.656Z,78.44
2019-05-01T23:26:32.296Z,79.65
2019-05-01T23:29:19.946Z,79.65
2019-05-01T23:32:07.907Z,79.70
2019-05-01T23:34:55.821Z,79.59
2019-05-01T23:37:49.621Z,80.21
2019-05-01T23:40:37.155Z,80.21
2019-05-01T23:43:27.897Z,80.27
2019-05-01T23:46:13.346Z,80.64
2019-05-01T23:49:01.353Z,80.70
2019-05-01T23:51:49.562Z,81.00
2019-05-01T23:54:37.065Z,81.00
2019-05-01T23:57:24.806Z,81.44
